Time;durP1;ratioP1;P1;durP2;ratioP2;P2;SDS_P1;SDS_P2;PMS_P1;PMS_P2;Temp;Humidity;BMP_temperature;BMP_pressure;BME280_temperature;BME280_humidity;BME280_pressure;Samples;Min_cycle;Max_cycle;Signal;HPM_P1;HPM_P2
2023/03/22 00:08:13;;;;;;;10.45;4.63;;;10.40;99.90;;;;;;6403554;22;20029;-92
2023/03/22 00:10:39;;;;;;;;;;;10.40;99.90;;;;;;6284250;22;20095;-90
2023/03/22 00:13:06;;;;;;;9.07;4.65;;;10.30;99.90;;;;;;6220478;22;19920;-89
2023/03/22 00:15:33;;;;;;;8.48;3.70;;;10.40;99.90;;;;;;6288998;22;20455;-89
2023/03/22 00:17:59;;;;;;;8.57;3.83;;;10.40;99.90;;;;;;6241454;23;20016;-92
2023/03/22 00:20:29;;;;;;;7.57;3.70;;;10.40;99.90;;;;;;6241397;22;20034;-91
2023/03/22 00:23:01;;;;;;;11.20;3.78;;;10.40;99.90;;;;;;6243826;22;20351;-89
2023/03/22 00:25:26;;;;;;;8.63;4.18;;;10.40;99.90;;;;;;6215913;23;20016;-91
2023/03/22 00:27:52;;;;;;;10.87;4.23;;;10.40;99.90;;;;;;6166156;22;20095;-90
2023/03/22 00:30:18;;;;;;;10.40;3.93;;;10.40;99.90;;;;;;6234569;22;20027;-91
2023/03/22 00:32:44;;;;;;;8.47;3.60;;;10.40;99.90;;;;;;6278554;22;20019;-91
2023/03/22 00:35:11;;;;;;;9.35;3.95;;;10.40;99.90;;;;;;6384388;22;20014;-93
2023/03/22 00:37:40;;;;;;;8.50;3.97;;;10.40;99.90;;;;;;6258697;22;20016;-93
2023/03/22 00:40:10;;;;;;;8.73;3.83;;;10.30;99.90;;;;;;6221371;22;20020;-91
2023/03/22 00:42:40;;;;;;;6.25;2.80;;;10.30;99.90;;;;;;6259546;22;20016;-91
2023/03/22 00:45:08;;;;;;;9.32;3.33;;;10.30;99.90;;;;;;6220633;22;20016;-92
2023/03/22 00:47:34;;;;;;;9.23;3.17;;;10.30;99.90;;;;;;6261249;22;20305;-94
2023/03/22 00:50:01;;;;;;;7.50;3.17;;;10.30;99.90;;;;;;6374102;22;20257;-89
2023/03/22 00:52:27;;;;;;;7.78;3.63;;;10.30;99.90;;;;;;6280697;22;20043;-92
2023/03/22 00:54:53;;;;;;;;;;;10.30;99.90;;;;;;6215685;23;20373;-93
2023/03/22 00:57:19;;;;;;;6.15;2.70;;;10.20;99.90;;;;;;6260240;22;19927;-93
2023/03/22 00:59:45;;;;;;;6.15;2.58;;;10.20;99.90;;;;;;6251449;22;20020;-90
2023/03/22 01:02:14;;;;;;;7.30;2.30;;;10.20;99.90;;;;;;6385449;22;20068;-93
2023/03/22 01:04:45;;;;;;;7.57;2.83;;;10.20;99.90;;;;;;6286041;22;20063;-92
2023/03/22 01:07:16;;;;;;;6.72;2.45;;;10.20;99.90;;;;;;6220152;22;20099;-89
2023/03/22 01:09:43;;;;;;;4.72;1.55;;;10.20;99.90;;;;;;6244891;22;20016;-95
2023/03/22 01:12:10;;;;;;;6.63;1.88;;;10.20;99.90;;;;;;6245430;22;20020;-91
2023/03/22 01:14:36;;;;;;;5.60;1.83;;;10.20;99.90;;;;;;6220340;22;20015;-95
2023/03/22 01:17:20;;;;;;;5.22;1.80;;;10.20;99.90;;;;;;6220147;22;20320;-89
2023/03/22 01:19:46;;;;;;;6.55;2.05;;;10.20;99.90;;;;;;6220360;22;20094;-89
2023/03/22 01:22:12;;;;;;;5.97;1.97;;;10.20;99.90;;;;;;6220040;22;20016;-90
2023/03/22 01:24:38;;;;;;;6.70;2.10;;;10.10;99.90;;;;;;6195838;22;20023;-92
2023/03/22 01:27:03;;;;;;;6.87;1.80;;;10.20;99.90;;;;;;6220886;22;20027;-92
2023/03/22 01:29:30;;;;;;;6.20;1.90;;;10.10;99.90;;;;;;6275177;22;20078;-88
2023/03/22 01:31:56;;;;;;;;;;;10.10;99.90;;;;;;6229286;22;20016;-90
2023/03/22 01:34:56;;;;;;;5.55;1.35;;;10.10;99.90;;;;;;6263258;22;19926;-92
2023/03/22 01:37:41;;;;;;;6.32;1.90;;;10.10;99.90;;;;;;6233921;22;20030;-85
2023/03/22 01:40:07;;;;;;;3.25;1.10;;;10.10;99.90;;;;;;6218728;22;20444;-85
2023/03/22 01:42:33;;;;;;;6.50;2.03;;;10.00;99.90;;;;;;6194445;22;20557;-87
2023/03/22 01:45:15;;;;;;;5.03;1.50;;;10.10;99.90;;;;;;6244988;22;20016;-88
2023/03/22 01:47:58;;;;;;;2.58;0.90;;;10.00;99.90;;;;;;6219183;22;20012;-88
2023/03/22 01:50:25;;;;;;;4.72;1.35;;;10.00;99.90;;;;;;6219367;22;20072;-86
2023/03/22 01:52:57;;;;;;;4.22;1.58;;;10.00;99.90;;;;;;6219975;22;20012;-86
2023/03/22 01:55:24;;;;;;;4.00;1.10;;;10.00;99.90;;;;;;6244426;22;20016;-86
2023/03/22 01:57:52;;;;;;;5.82;1.00;;;10.00;99.90;;;;;;6194350;22;20436;-85
2023/03/22 02:00:19;;;;;;;5.20;1.00;;;10.00;99.90;;;;;;6219444;22;20352;-85
2023/03/22 02:03:07;;;;;;;4.10;0.95;;;10.00;99.90;;;;;;6222676;22;20016;-85
2023/03/22 02:05:35;;;;;;;3.53;1.00;;;10.00;99.90;;;;;;6210163;22;20479;-86
2023/03/22 02:08:01;;;;;;;5.43;1.10;;;9.90;99.90;;;;;;6214218;22;20091;-85
2023/03/22 02:10:27;;;;;;;4.20;1.00;;;9.90;99.90;;;;;;6189423;22;20020;-89
2023/03/22 02:13:05;;;;;;;4.90;0.98;;;9.90;99.90;;;;;;6189507;23;20024;-86
2023/03/22 02:15:48;;;;;;;4.47;0.82;;;9.90;99.90;;;;;;6239388;22;20058;-87
2023/03/22 02:18:54;;;;;;;4.55;0.60;;;9.90;99.90;;;;;;6253942;22;20088;-85
2023/03/22 02:21:32;;;;;;;3.30;0.98;;;9.90;99.90;;;;;;6240910;22;20027;-87
2023/03/22 02:24:07;;;;;;;;;;;9.90;99.90;;;;;;6404448;22;20025;-88
2023/03/22 02:26:45;;;;;;;2.80;0.77;;;9.90;99.90;;;;;;6288768;22;19984;-86
2023/03/22 02:29:33;;;;;;;4.15;0.73;;;9.90;99.90;;;;;;6227305;22;20020;-86
2023/03/22 02:32:12;;;;;;;3.05;0.80;;;9.90;99.90;;;;;;6264985;22;20020;-86
2023/03/22 02:34:41;;;;;;;2.95;0.52;;;9.90;99.90;;;;;;6240691;23;20463;-85
2023/03/22 02:37:27;;;;;;;3.80;0.80;;;9.90;99.90;;;;;;6246912;22;20152;-86
2023/03/22 02:40:24;;;;;;;2.20;0.55;;;9.90;99.90;;;;;;6244387;22;20012;-85
2023/03/22 02:42:55;;;;;;;2.67;0.90;;;9.90;99.90;;;;;;6272368;22;20463;-85
2023/03/22 02:45:27;;;;;;;4.95;0.88;;;9.80;99.90;;;;;;6263162;22;20016;-88
2023/03/22 02:48:23;;;;;;;3.40;1.08;;;9.90;99.90;;;;;;6403617;22;20032;-85
2023/03/22 02:50:55;;;;;;;3.60;0.70;;;9.80;99.90;;;;;;6237827;22;20012;-88
2023/03/22 02:53:23;;;;;;;2.83;0.60;;;9.90;99.90;;;;;;6237539;22;20016;-86
2023/03/22 02:56:01;;;;;;;2.15;0.47;;;9.90;99.90;;;;;;6248250;22;20341;-88
2023/03/22 02:58:44;;;;;;;2.58;0.70;;;9.90;99.90;;;;;;6215746;22;20019;-87
2023/03/22 03:01:21;;;;;;;0.93;0.40;;;9.90;99.90;;;;;;6225766;22;20041;-88
2023/03/22 03:03:49;;;;;;;3.20;0.60;;;9.90;99.90;;;;;;6403741;22;20438;-85
2023/03/22 03:06:20;;;;;;;1.67;0.50;;;9.90;99.90;;;;;;6266180;22;20058;-86
2023/03/22 03:08:52;;;;;;;1.98;0.55;;;9.90;99.90;;;;;;6250637;22;20012;-90
2023/03/22 03:11:18;;;;;;;1.73;0.50;;;9.90;99.90;;;;;;6210012;22;20095;-88
2023/03/22 03:13:48;;;;;;;1.83;0.70;;;9.90;99.90;;;;;;6403665;22;20017;-87
2023/03/22 03:16:16;;;;;;;3.20;0.40;;;9.90;99.90;;;;;;6215418;22;20065;-87
2023/03/22 03:19:06;;;;;;;2.05;0.55;;;10.00;99.90;;;;;;6254463;22;20069;-86
2023/03/22 03:22:01;;;;;;;2.63;0.40;;;9.90;99.90;;;;;;6215611;22;20054;-86
2023/03/22 03:25:00;;;;;;;3.70;0.68;;;10.00;99.90;;;;;;6215557;22;20035;-86
2023/03/22 03:27:48;;;;;;;2.40;0.70;;;10.00;99.90;;;;;;6240612;23;20013;-85
2023/03/22 03:30:33;;;;;;;4.40;0.70;;;9.90;99.90;;;;;;6229867;22;20437;-85
2023/03/22 03:33:08;;;;;;;2.75;0.50;;;9.90;99.90;;;;;;6238992;22;20065;-85
2023/03/22 03:35:44;;;;;;;5.07;0.93;;;9.90;99.90;;;;;;6240651;23;20069;-86
2023/03/22 03:38:16;;;;;;;5.90;0.80;;;9.90;99.90;;;;;;6224741;22;20046;-86
2023/03/22 03:40:49;;;;;;;2.47;0.60;;;9.90;99.90;;;;;;6254261;22;20023;-85
2023/03/22 03:43:16;;;;;;;1.75;0.50;;;9.90;99.90;;;;;;6230503;22;20072;-85
2023/03/22 03:45:43;;;;;;;3.65;0.70;;;9.90;99.90;;;;;;6402896;22;20010;-85
2023/03/22 03:48:17;;;;;;;7.53;0.63;;;9.90;99.90;;;;;;6264033;22;20016;-86
2023/03/22 03:50:43;;;;;;;4.20;0.70;;;9.90;99.90;;;;;;6278374;22;20406;-85
2023/03/22 03:53:09;;;;;;;1.75;0.50;;;9.90;99.90;;;;;;6224418;22;20232;-86
2023/03/22 03:55:36;;;;;;;1.80;0.90;;;9.90;99.90;;;;;;6285829;22;20038;-85
2023/03/22 03:58:02;;;;;;;3.95;0.70;;;9.90;99.90;;;;;;6241197;22;20052;-86
2023/03/22 04:00:27;;;;;;;3.27;0.60;;;9.90;99.90;;;;;;6266513;22;20023;-84
2023/03/22 04:02:53;;;;;;;4.00;0.87;;;9.90;99.90;;;;;;6215153;23;20022;-89
2023/03/22 04:05:19;;;;;;;3.30;0.70;;;9.90;99.90;;;;;;6235035;22;20099;-86
2023/03/22 04:07:45;;;;;;;5.90;1.70;;;9.90;99.90;;;;;;6277170;22;20024;-85
2023/03/22 04:10:10;;;;;;;3.70;0.80;;;9.90;99.90;;;;;;6225798;22;20016;-85
2023/03/22 04:12:36;;;;;;;4.13;0.90;;;9.90;99.90;;;;;;6402595;22;20066;-86
2023/03/22 04:15:02;;;;;;;3.63;0.60;;;9.90;99.90;;;;;;6262780;22;20043;-85
2023/03/22 04:17:28;;;;;;;2.70;0.63;;;9.90;99.90;;;;;;6292357;22;20016;-85
2023/03/22 04:19:55;;;;;;;4.67;0.80;;;9.90;99.90;;;;;;6215143;23;20267;-86
2023/03/22 04:22:25;;;;;;;1.63;0.50;;;9.90;99.90;;;;;;6237724;22;20252;-87
2023/03/22 04:24:51;;;;;;;3.13;0.90;;;9.80;99.90;;;;;;6220933;22;20020;-87
2023/03/22 04:27:18;;;;;;;3.70;0.52;;;9.90;99.90;;;;;;6232896;22;20022;-85
2023/03/22 04:29:47;;;;;;;2.55;0.60;;;9.80;99.90;;;;;;6277662;22;20020;-86
2023/03/22 04:32:21;;;;;;;3.47;0.93;;;9.90;99.90;;;;;;6228902;22;20008;-86
2023/03/22 04:34:51;;;;;;;4.93;0.82;;;9.80;99.90;;;;;;6224776;22;20020;-86
2023/03/22 04:37:18;;;;;;;2.80;1.10;;;9.80;99.90;;;;;;6257849;22;20020;-86
2023/03/22 04:39:53;;;;;;;4.53;0.93;;;9.80;99.90;;;;;;6277912;22;20065;-86
2023/03/22 04:42:19;;;;;;;3.83;0.80;;;9.80;99.90;;;;;;6209845;22;20053;-85
2023/03/22 04:45:02;;;;;;;3.33;0.82;;;9.80;99.90;;;;;;6250288;22;20341;-86
2023/03/22 04:47:29;;;;;;;2.53;0.75;;;9.80;99.90;;;;;;6265499;22;20012;-86
2023/03/22 04:49:55;;;;;;;4.30;1.00;;;9.80;99.90;;;;;;6215048;22;20023;-87
2023/03/22 04:52:20;;;;;;;3.47;0.88;;;9.80;99.90;;;;;;6236718;22;20009;-87
2023/03/22 04:54:46;;;;;;;6.13;1.30;;;9.90;99.90;;;;;;6250108;22;20027;-86
2023/03/22 04:57:12;;;;;;;6.57;1.13;;;9.80;99.90;;;;;;6227344;22;20452;-85
2023/03/22 04:59:49;;;;;;;4.33;1.10;;;9.80;99.90;;;;;;6282907;22;20020;-87
2023/03/22 05:02:22;;;;;;;5.18;1.70;;;9.90;99.90;;;;;;6231529;22;20020;-87
2023/03/22 05:05:17;;;;;;;4.82;1.45;;;9.90;99.90;;;;;;6311883;22;20102;-85
2023/03/22 05:07:43;;;;;;;4.78;1.42;;;9.90;99.90;;;;;;6311255;22;20018;-87
2023/03/22 05:10:09;;;;;;;8.53;1.90;;;9.90;99.90;;;;;;6280543;22;20090;-85
2023/03/22 05:12:35;;;;;;;4.78;1.70;;;9.90;99.90;;;;;;6214661;23;20084;-90
2023/03/22 05:15:03;;;;;;;6.50;2.30;;;9.90;99.90;;;;;;6241806;23;20020;-88
2023/03/22 05:17:28;;;;;;;4.25;1.60;;;9.90;99.90;;;;;;6241928;23;20012;-88
2023/03/22 05:19:54;;;;;;;6.33;1.97;;;10.00;99.90;;;;;;6214891;23;20487;-87
2023/03/22 05:22:21;;;;;;;7.00;2.57;;;10.00;99.90;;;;;;6241702;23;20020;-88
2023/03/22 05:24:46;;;;;;;;;;;10.00;99.90;;;;;;6191055;23;20463;-88
2023/03/22 05:27:13;;;;;;;9.50;3.33;;;10.00;99.90;;;;;;6189762;23;19955;-89
2023/03/22 05:29:43;;;;;;;7.85;2.60;;;10.00;99.90;;;;;;6215102;23;20009;-86
2023/03/22 05:32:10;;;;;;;6.15;2.30;;;10.00;99.90;;;;;;6241732;23;20016;-87
2023/03/22 05:34:36;;;;;;;;;;;10.00;99.90;;;;;;6215431;23;20480;-86
2023/03/22 05:37:02;;;;;;;11.68;3.33;;;10.00;99.90;;;;;;6241294;23;19916;-86
2023/03/22 05:39:28;;;;;;;5.70;2.40;;;10.00;99.90;;;;;;6214417;22;20091;-86
2023/03/22 05:41:54;;;;;;;6.65;2.90;;;10.00;99.90;;;;;;6189680;23;20069;-88
2023/03/22 05:46:55;;;;;;;6.03;2.72;;;10.10;99.90;;;;;;6395864;22;20029;-85
2023/03/22 05:49:46;;;;;;;7.23;3.07;;;10.10;99.90;;;;;;6242168;22;20006;-86
2023/03/22 05:52:11;;;;;;;8.65;3.10;;;10.10;99.90;;;;;;6240005;22;20335;-86
2023/03/22 05:54:37;;;;;;;10.03;3.07;;;10.10;99.90;;;;;;6189644;22;20014;-84
2023/03/22 05:57:03;;;;;;;8.37;2.97;;;10.10;99.90;;;;;;6347883;22;20453;-87
2023/03/22 05:59:28;;;;;;;6.67;2.90;;;10.10;99.90;;;;;;6267104;22;20010;-86
2023/03/22 06:01:54;;;;;;;8.63;3.20;;;10.10;99.90;;;;;;6242754;22;20010;-83
2023/03/22 06:04:20;;;;;;;7.20;3.17;;;10.10;99.90;;;;;;6192562;22;20013;-86
2023/03/22 06:07:10;;;;;;;8.02;2.95;;;10.10;99.90;;;;;;6404446;22;20021;-88
2023/03/22 06:09:49;;;;;;;7.97;3.15;;;10.20;99.90;;;;;;6242932;22;20017;-84
2023/03/22 06:12:15;;;;;;;11.00;3.65;;;10.20;99.90;;;;;;6217687;22;20018;-83
2023/03/22 06:14:41;;;;;;;7.85;2.85;;;10.20;99.90;;;;;;6217610;22;20058;-85
2023/03/22 06:17:07;;;;;;;9.17;3.67;;;10.20;99.90;;;;;;6217705;22;20448;-83
2023/03/22 06:19:33;;;;;;;7.28;3.30;;;10.10;99.90;;;;;;6242169;22;20108;-85
2023/03/22 06:22:08;;;;;;;11.67;4.03;;;10.20;99.90;;;;;;6243620;22;20107;-86
2023/03/22 06:24:34;;;;;;;9.10;3.78;;;10.20;99.90;;;;;;6242843;22;20025;-86
2023/03/22 06:27:00;;;;;;;9.05;4.22;;;10.20;99.90;;;;;;6266268;22;20010;-86
2023/03/22 06:29:26;;;;;;;9.07;3.60;;;10.20;99.90;;;;;;6241073;22;20389;-85
2023/03/22 06:31:51;;;;;;;10.43;3.77;;;10.20;99.90;;;;;;6267639;22;20017;-86
2023/03/22 06:34:17;;;;;;;10.40;4.07;;;10.20;99.90;;;;;;6266838;22;20101;-87
2023/03/22 06:36:43;;;;;;;9.93;3.63;;;10.20;99.90;;;;;;6217251;22;20021;-88
2023/03/22 06:39:09;;;;;;;8.73;3.42;;;10.20;99.90;;;;;;6242977;22;20199;-89
2023/03/22 06:41:34;;;;;;;9.27;3.77;;;10.30;99.90;;;;;;6268843;22;20010;-87
2023/03/22 06:44:01;;;;;;;9.47;3.20;;;10.30;99.90;;;;;;6267521;22;20014;-87
2023/03/22 06:46:27;;;;;;;9.13;4.30;;;10.30;99.90;;;;;;6267482;22;20346;-84
2023/03/22 06:48:53;;;;;;;9.40;4.30;;;10.30;99.90;;;;;;6267084;22;20048;-89
2023/03/22 06:51:18;;;;;;;10.90;4.30;;;10.30;99.90;;;;;;6403589;22;20009;-85
2023/03/22 06:53:45;;;;;;;9.90;4.10;;;10.40;99.90;;;;;;6267519;22;20014;-84
2023/03/22 06:56:11;;;;;;;11.45;3.95;;;10.40;99.90;;;;;;6267314;22;20010;-86
2023/03/22 06:58:36;;;;;;;8.73;3.90;;;10.40;99.90;;;;;;6266089;22;20395;-85
2023/03/22 07:01:02;;;;;;;9.30;3.77;;;10.40;99.90;;;;;;6216665;22;20025;-88
2023/03/22 07:03:28;;;;;;;8.02;4.15;;;10.40;99.90;;;;;;6402707;22;20048;-85
2023/03/22 07:06:00;;;;;;;9.40;3.90;;;10.40;99.90;;;;;;6241560;22;20443;-87
2023/03/22 07:08:26;;;;;;;8.68;4.22;;;10.50;99.90;;;;;;6267236;22;20021;-86
2023/03/22 07:10:52;;;;;;;10.43;3.90;;;10.50;99.90;;;;;;6242026;22;20014;-85
2023/03/22 07:13:17;;;;;;;9.40;4.30;;;10.50;99.90;;;;;;6242435;22;20010;-86
2023/03/22 07:15:43;;;;;;;7.00;3.60;;;10.50;99.90;;;;;;6217145;22;20022;-86
2023/03/22 07:18:09;;;;;;;10.03;3.90;;;10.60;99.90;;;;;;6267425;22;20013;-86
2023/03/22 07:21:25;;;;;;;7.93;3.40;;;10.60;99.90;;;;;;6237583;22;20014;-85
2023/03/22 07:23:51;;;;;;;11.50;4.30;;;10.60;99.90;;;;;;6241697;22;20013;-86
2023/03/22 07:26:16;;;;;;;10.13;3.93;;;10.60;99.90;;;;;;6242122;22;20485;-87
2023/03/22 07:28:43;;;;;;;11.33;4.30;;;10.70;99.90;;;;;;6241704;22;20287;-87
2023/03/22 07:31:11;;;;;;;9.65;4.25;;;10.70;99.90;;;;;;6403094;22;20014;-87
2023/03/22 07:33:37;;;;;;;7.80;3.40;;;10.70;99.90;;;;;;6402673;22;20338;-85
2023/03/22 07:36:09;;;;;;;9.52;3.95;;;10.70;99.90;;;;;;6217057;22;20036;-84
2023/03/22 07:38:53;;;;;;;8.77;3.90;;;10.70;99.90;;;;;;6242221;22;20472;-84
2023/03/22 07:41:34;;;;;;;10.75;3.80;;;10.80;99.90;;;;;;6267732;22;20024;-84
2023/03/22 07:44:00;;;;;;;7.72;3.63;;;10.80;99.90;;;;;;6267159;22;20025;-84
2023/03/22 07:46:25;;;;;;;9.90;4.50;;;10.80;99.90;;;;;;6241885;22;20010;-82
2023/03/22 07:48:51;;;;;;;9.67;4.03;;;10.80;99.90;;;;;;6216162;22;20049;-84
2023/03/22 07:51:26;;;;;;;8.97;4.03;;;10.70;99.90;;;;;;6242063;22;20014;-85
2023/03/22 07:53:51;;;;;;;8.27;3.55;;;10.70;99.90;;;;;;6217055;22;20025;-87
2023/03/22 07:56:17;;;;;;;8.17;3.57;;;10.80;99.90;;;;;;6402129;22;20348;-84
2023/03/22 07:58:42;;;;;;;7.47;3.67;;;10.80;99.90;;;;;;6240084;22;20045;-89
2023/03/22 08:01:08;;;;;;;11.87;4.20;;;10.70;99.90;;;;;;6240815;22;20018;-86
2023/03/22 08:03:35;;;;;;;8.17;3.50;;;10.80;99.90;;;;;;6266133;22;20017;-83
2023/03/22 08:06:06;;;;;;;5.65;2.88;;;10.70;99.90;;;;;;6402474;22;20446;-88
2023/03/22 08:08:36;;;;;;;7.22;3.08;;;10.80;99.90;;;;;;6266981;22;20049;-85
2023/03/22 08:11:06;;;;;;;9.10;3.03;;;10.80;99.90;;;;;;6241943;22;20014;-90
2023/03/22 08:13:31;;;;;;;7.13;3.22;;;10.80;99.90;;;;;;6267320;22;20024;-87
2023/03/22 08:15:57;;;;;;;8.97;3.50;;;11.00;99.90;;;;;;6402755;22;20014;-89
2023/03/22 08:18:23;;;;;;;8.18;3.42;;;11.00;99.90;;;;;;6267382;22;20010;-90
2023/03/22 08:20:56;;;;;;;7.63;3.33;;;11.00;99.90;;;;;;6401768;22;20042;-89
2023/03/22 08:23:24;;;;;;;6.53;3.13;;;11.10;99.90;;;;;;6267038;22;20021;-87
2023/03/22 08:25:50;;;;;;;8.93;3.08;;;11.10;99.90;;;;;;6241361;22;20020;-85
2023/03/22 08:28:16;;;;;;;8.30;3.25;;;11.10;99.90;;;;;;6239881;22;20005;-86
2023/03/22 08:30:43;;;;;;;6.32;2.78;;;11.10;99.90;;;;;;6241100;22;20100;-86
2023/03/22 08:33:10;;;;;;;6.93;3.25;;;11.10;99.90;;;;;;6401835;22;20018;-87
2023/03/22 08:35:35;;;;;;;8.57;3.03;;;11.10;99.90;;;;;;6266901;22;20057;-87
2023/03/22 08:38:01;;;;;;;5.77;2.70;;;11.10;99.90;;;;;;6266912;22;20025;-89
2023/03/22 08:40:27;;;;;;;7.33;2.93;;;11.10;99.90;;;;;;6401989;22;20018;-87
2023/03/22 08:42:53;;;;;;;5.50;2.33;;;11.20;99.90;;;;;;6402296;22;20485;-88
2023/03/22 08:45:18;;;;;;;7.07;2.67;;;11.20;99.90;;;;;;6266681;22;20435;-87
2023/03/22 08:47:44;;;;;;;5.70;2.50;;;11.30;99.90;;;;;;6241309;22;20022;-85
2023/03/22 08:50:11;;;;;;;6.90;2.97;;;11.30;99.90;;;;;;6267637;22;20025;-87
2023/03/22 08:52:40;;;;;;;;;;;11.30;99.90;;;;;;6242616;22;20090;-86
2023/03/22 08:55:07;;;;;;;8.02;2.80;;;11.40;99.90;;;;;;6267024;22;20312;-88
2023/03/22 08:57:33;;;;;;;5.35;2.25;;;11.40;99.90;;;;;;6241989;22;20078;-87
2023/03/22 09:00:05;;;;;;;6.38;2.55;;;11.40;99.90;;;;;;6348227;22;20045;-90
2023/03/22 09:02:31;;;;;;;7.95;2.30;;;11.40;99.90;;;;;;6241433;22;20032;-91
2023/03/22 09:04:57;;;;;;;7.95;2.35;;;11.40;99.90;;;;;;6400409;22;20079;-88
2023/03/22 09:07:23;;;;;;;6.18;2.22;;;11.40;99.90;;;;;;6266513;22;20010;-89
2023/03/22 09:09:50;;;;;;;4.53;2.17;;;11.50;99.90;;;;;;6267281;22;20014;-88
2023/03/22 09:12:15;;;;;;;4.57;1.75;;;11.50;99.90;;;;;;6242053;22;20025;-88
2023/03/22 09:15:01;;;;;;;4.60;1.93;;;11.50;99.90;;;;;;6400578;22;20013;-88
2023/03/22 09:17:55;;;;;;;6.72;1.95;;;11.60;99.90;;;;;;6373419;22;20021;-89
2023/03/22 09:20:24;;;;;;;4.95;2.03;;;11.60;99.90;;;;;;6241996;22;20014;-94
2023/03/22 09:22:56;;;;;;;5.38;2.00;;;11.60;99.90;;;;;;6242227;22;20018;-92
2023/03/22 09:25:21;;;;;;;5.60;1.92;;;11.60;99.90;;;;;;6242057;22;20017;-90
2023/03/22 09:27:48;;;;;;;4.97;1.92;;;11.60;99.90;;;;;;6241694;22;20052;-94
2023/03/22 09:30:14;;;;;;;6.22;2.63;;;11.60;99.90;;;;;;6217975;22;20014;-92
2023/03/22 09:35:15;;;;;;;5.63;2.25;;;11.60;99.90;;;;;;6403465;22;20017;-90
2023/03/22 09:37:41;;;;;;;3.83;1.60;;;11.60;99.90;;;;;;6217918;22;20013;-89
2023/03/22 09:40:07;;;;;;;5.17;1.77;;;11.60;99.90;;;;;;6241431;22;20267;-87
2023/03/22 09:42:41;;;;;;;;;;;11.60;99.90;;;;;;6242878;22;20070;-87
2023/03/22 09:45:14;;;;;;;4.10;1.70;;;11.70;99.90;;;;;;6242589;22;19910;-88
2023/03/22 09:47:45;;;;;;;3.97;1.85;;;11.70;99.90;;;;;;6268024;22;20029;-85
2023/03/22 09:50:26;;;;;;;3.92;1.63;;;11.60;99.90;;;;;;6242774;22;20070;-87
2023/03/22 09:52:53;;;;;;;6.05;1.60;;;11.60;99.90;;;;;;6268077;22;20066;-87
2023/03/22 09:55:31;;;;;;;4.15;1.98;;;11.60;99.90;;;;;;6242687;22;20021;-87
2023/03/22 09:58:34;;;;;;;3.92;1.80;;;11.60;99.90;;;;;;6242855;22;20009;-88
2023/03/22 10:01:11;;;;;;;6.68;1.70;;;11.50;99.90;;;;;;6265919;22;20021;-88
2023/03/22 10:04:03;;;;;;;5.82;1.42;;;11.40;99.90;;;;;;6266592;22;20014;-87
2023/03/22 10:06:30;;;;;;;4.15;1.77;;;11.40;99.90;;;;;;6267841;22;20643;-88
2023/03/22 10:09:18;;;;;;;7.88;1.75;;;11.40;99.90;;;;;;6264452;22;20029;-91
2023/03/22 10:12:21;;;;;;;;;;;11.30;99.90;;;;;;6403690;22;20014;-87
2023/03/22 10:15:17;;;;;;;6.45;1.77;;;11.30;99.90;;;;;;6311931;22;19914;-87
2023/03/22 10:17:58;;;;;;;4.75;1.90;;;11.20;99.90;;;;;;6312112;22;20056;-90
2023/03/22 10:20:35;;;;;;;4.47;1.85;;;11.10;99.90;;;;;;6311680;22;20060;-84
2023/03/22 10:23:05;;;;;;;4.10;2.00;;;11.00;99.90;;;;;;6311709;22;20068;-87
2023/03/22 10:25:36;;;;;;;6.00;1.60;;;11.00;99.90;;;;;;6311634;22;20367;-87
2023/03/22 10:28:28;;;;;;;5.47;1.95;;;10.90;99.90;;;;;;6312171;22;20088;-86
2023/03/22 10:30:55;;;;;;;4.40;1.83;;;10.90;99.90;;;;;;6311534;22;20084;-88
2023/03/22 10:33:27;;;;;;;4.18;1.55;;;10.80;99.90;;;;;;6311190;22;20340;-86
2023/03/22 10:35:54;;;;;;;4.75;1.77;;;10.80;99.90;;;;;;6311386;22;20026;-87
2023/03/22 10:38:26;;;;;;;3.33;1.55;;;10.80;99.90;;;;;;6235213;22;20011;-87
2023/03/22 10:40:56;;;;;;;5.47;1.85;;;10.70;99.90;;;;;;6311274;22;20101;-87
2023/03/22 10:43:35;;;;;;;3.97;1.50;;;10.70;99.90;;;;;;6312201;22;20402;-89
2023/03/22 10:46:05;;;;;;;5.57;2.00;;;10.70;99.90;;;;;;6285671;22;20019;-87
2023/03/22 10:48:35;;;;;;;3.88;1.60;;;10.70;99.90;;;;;;6311407;22;20053;-87
2023/03/22 10:51:01;;;;;;;3.92;1.58;;;10.60;99.90;;;;;;6311254;22;20448;-87
2023/03/22 10:53:39;;;;;;;4.28;1.83;;;10.60;99.90;;;;;;6311373;22;20070;-86
2023/03/22 10:56:11;;;;;;;3.88;1.73;;;10.60;99.90;;;;;;6311341;22;20075;-87
2023/03/22 10:58:37;;;;;;;2.90;1.60;;;10.50;99.90;;;;;;6311488;22;20011;-87
2023/03/22 11:01:09;;;;;;;5.43;1.80;;;10.50;99.90;;;;;;6311017;22;20074;-87
2023/03/22 11:03:35;;;;;;;4.60;1.70;;;10.50;99.90;;;;;;6311153;22;20019;-87
2023/03/22 11:06:16;;;;;;;4.28;1.60;;;10.50;99.90;;;;;;6310231;22;20093;-87
2023/03/22 11:08:46;;;;;;;5.97;1.92;;;10.50;99.90;;;;;;6311199;22;20017;-86
2023/03/22 11:11:34;;;;;;;4.93;1.90;;;10.50;99.90;;;;;;6308992;22;20021;-87
2023/03/22 11:14:14;;;;;;;5.13;2.05;;;10.50;99.90;;;;;;6311306;22;20025;-87
2023/03/22 11:16:53;;;;;;;8.13;2.10;;;10.40;99.90;;;;;;6311060;22;20605;-88
2023/03/22 11:19:26;;;;;;;4.32;1.70;;;10.50;99.90;;;;;;6242193;22;20067;-91
2023/03/22 11:21:56;;;;;;;2.58;1.45;;;10.50;99.90;;;;;;6267469;22;20021;-86
2023/03/22 11:24:25;;;;;;;5.45;1.95;;;10.50;99.90;;;;;;6242138;22;20447;-86
2023/03/22 11:27:23;;;;;;;4.80;1.50;;;10.50;99.90;;;;;;6267318;22;20564;-90
2023/03/22 11:29:51;;;;;;;5.35;2.00;;;10.60;99.90;;;;;;6403195;22;20017;-86
2023/03/22 11:32:35;;;;;;;4.47;1.65;;;10.50;99.90;;;;;;6242004;22;20347;-87
2023/03/22 11:35:10;;;;;;;6.10;1.88;;;10.60;99.90;;;;;;6240480;22;20072;-88
2023/03/22 11:37:56;;;;;;;4.72;1.75;;;10.60;99.90;;;;;;6239080;22;20010;-86
2023/03/22 11:40:25;;;;;;;6.95;5.13;;;10.60;99.90;;;;;;6371548;22;20017;-86
2023/03/22 11:43:25;;;;;;;4.78;2.03;;;10.60;99.90;;;;;;6266557;22;20010;-89
2023/03/22 11:45:55;;;;;;;8.93;6.07;;;10.60;99.90;;;;;;6242662;22;20097;-88
2023/03/22 11:48:27;;;;;;;3.40;1.42;;;10.60;99.90;;;;;;6241833;22;20014;-87
2023/03/22 11:51:07;;;;;;;7.13;5.40;;;10.70;99.90;;;;;;6242617;22;20386;-86
2023/03/22 11:53:37;;;;;;;4.28;2.05;;;10.70;99.90;;;;;;6241745;22;20028;-87
2023/03/22 11:56:06;;;;;;;6.60;4.75;;;10.70;99.90;;;;;;6266685;22;20097;-86
2023/03/22 11:58:38;;;;;;;4.65;1.65;;;10.70;99.90;;;;;;6267147;22;20085;-86
2023/03/22 12:01:05;;;;;;;5.78;1.50;;;10.70;99.90;;;;;;6242131;22;20025;-86
2023/03/22 12:03:38;;;;;;;3.97;1.60;;;10.70;99.90;;;;;;6241391;22;20546;-86
2023/03/22 12:06:15;;;;;;;4.20;1.65;;;10.70;99.90;;;;;;6241477;22;20018;-86
2023/03/22 12:08:43;;;;;;;7.28;2.10;;;10.70;99.90;;;;;;6241871;22;20020;-87
2023/03/22 12:11:24;;;;;;;3.10;1.80;;;10.70;99.90;;;;;;6241454;22;20018;-85
2023/03/22 12:14:08;;;;;;;4.40;1.60;;;10.70;99.90;;;;;;6402583;22;20010;-87
2023/03/22 12:16:48;;;;;;;6.07;2.08;;;10.70;99.90;;;;;;6266826;22;20070;-86
2023/03/22 12:19:42;;;;;;;7.13;2.33;;;10.70;99.90;;;;;;6241794;22;20025;-86
2023/03/22 12:22:12;;;;;;;3.58;1.60;;;10.70;99.90;;;;;;6267001;22;20044;-87
2023/03/22 12:24:38;;;;;;;4.70;1.65;;;10.70;99.90;;;;;;6267461;22;20044;-88
2023/03/22 12:27:15;;;;;;;3.85;1.50;;;10.70;99.90;;;;;;6242071;22;20354;-86
2023/03/22 12:29:48;;;;;;;4.68;1.80;;;10.70;99.90;;;;;;6242013;22;20018;-87
2023/03/22 12:32:24;;;;;;;5.93;1.52;;;10.70;99.90;;;;;;6402504;22;20099;-87
2023/03/22 12:34:51;;;;;;;3.22;1.40;;;10.70;99.90;;;;;;6241852;22;20014;-88
2023/03/22 12:37:23;;;;;;;5.95;1.52;;;10.80;99.90;;;;;;6266791;22;20096;-89
2023/03/22 12:40:01;;;;;;;4.80;1.42;;;10.80;99.90;;;;;;6241490;22;20006;-86
2023/03/22 12:42:30;;;;;;;4.22;1.73;;;10.80;99.90;;;;;;6241257;22;20014;-85
2023/03/22 12:45:08;;;;;;;3.20;1.33;;;10.80;99.90;;;;;;6267012;22;20010;-85
2023/03/22 12:47:40;;;;;;;4.95;1.55;;;10.80;99.90;;;;;;6241109;22;20018;-86
2023/03/22 12:50:31;;;;;;;4.93;1.58;;;10.80;99.90;;;;;;6241790;22;20024;-86
2023/03/22 12:52:57;;;;;;;3.25;1.38;;;10.70;99.90;;;;;;6241611;22;20020;-88
2023/03/22 12:55:28;;;;;;;5.70;1.98;;;10.70;99.90;;;;;;6266505;22;20474;-86
2023/03/22 12:57:55;;;;;;;4.63;1.95;;;10.70;99.90;;;;;;6267304;22;20458;-86
2023/03/22 13:00:38;;;;;;;6.47;1.67;;;10.70;99.90;;;;;;6241576;22;20022;-87
2023/03/22 13:03:21;;;;;;;4.50;1.85;;;10.70;99.90;;;;;;6267363;22;20402;-87
2023/03/22 13:05:57;;;;;;;3.97;1.40;;;10.60;99.90;;;;;;6266681;22;20350;-86
2023/03/22 13:08:23;;;;;;;4.22;1.48;;;10.60;99.90;;;;;;6266676;22;20037;-86
2023/03/22 13:11:02;;;;;;;3.10;1.40;;;10.60;99.90;;;;;;6241123;22;20439;-86
2023/03/22 13:13:27;;;;;;;4.03;1.75;;;10.60;99.90;;;;;;6401876;22;20010;-86
2023/03/22 13:16:08;;;;;;;3.33;1.73;;;10.60;99.90;;;;;;6241497;22;20482;-86
2023/03/22 13:18:57;;;;;;;4.45;1.80;;;10.50;99.90;;;;;;6401776;22;20017;-86
2023/03/22 13:21:28;;;;;;;6.25;1.70;;;10.50;99.90;;;;;;6266682;22;20024;-88
2023/03/22 13:24:05;;;;;;;4.55;1.85;;;10.60;99.90;;;;;;6266355;22;20409;-85
2023/03/22 13:26:44;;;;;;;5.68;2.03;;;10.50;99.90;;;;;;6267249;22;20045;-83